createdAt,value
2022-11-02T00:01:41.232Z,101314.41
2022-11-02T00:04:38.458Z,101323.09
2022-11-02T00:07:36.011Z,101310.72
2022-11-02T00:10:32.487Z,101306.50
2022-11-02T00:13:29.671Z,101301.91
2022-11-02T00:16:26.611Z,101308.31
2022-11-02T00:19:23.644Z,101309.97
2022-11-02T00:22:21.054Z,101313.63
2022-11-02T00:25:18.544Z,101306.81
2022-11-02T00:28:15.630Z,101297.38
2022-11-02T00:31:12.931Z,101302.06
2022-11-02T00:34:10.175Z,101297.22
2022-11-02T00:37:07.941Z,101305.16
2022-11-02T00:40:05.676Z,101289.28
2022-11-02T00:43:02.716Z,101281.41
2022-11-02T00:45:59.435Z,101267.31
2022-11-02T00:48:56.912Z,101295.81
2022-11-02T00:51:53.712Z,101280.41
2022-11-02T00:54:50.763Z,101275.25
2022-11-02T00:57:48.753Z,101277.59
2022-11-02T01:00:45.661Z,101265.75
2022-11-02T01:03:42.385Z,101267.38
2022-11-02T01:06:40.359Z,101275.44
2022-11-02T01:09:37.963Z,101258.94
2022-11-02T01:12:37.441Z,101269.91
2022-11-02T01:15:36.893Z,101278.03
2022-11-02T01:18:35.454Z,101281.41
2022-11-02T01:21:32.685Z,101266.88
2022-11-02T01:24:29.938Z,101262.09
2022-11-02T01:27:26.413Z,101260.28
2022-11-02T01:30:23.623Z,101268.81
2022-11-02T01:33:20.626Z,101253.22
2022-11-02T01:39:22.684Z,101258.44
2022-11-02T01:42:20.712Z,101245.91
2022-11-02T01:45:17.619Z,101251.59
2022-11-02T01:48:14.789Z,101248.13
2022-11-02T01:51:15.995Z,101234.28
2022-11-02T01:54:14.590Z,101255.22
2022-11-02T01:57:13.711Z,101249.78
2022-11-02T02:00:12.905Z,101234.66
2022-11-02T02:03:06.761Z,101236.56
2022-11-02T02:06:12.682Z,101233.19
2022-11-02T02:09:10.291Z,101251.06
2022-11-02T02:12:07.767Z,101241.72
2022-11-02T02:15:05.286Z,101232.63
2022-11-02T02:18:17.969Z,101234.38
2022-11-02T02:21:35.754Z,101234.47
2022-11-02T02:25:11.869Z,101230.47
2022-11-02T02:28:25.294Z,101210.66
2022-11-02T02:31:34.512Z,101212.69
2022-11-02T02:34:37.221Z,101212.94
2022-11-02T02:37:35.887Z,101210.31
2022-11-02T02:40:37.835Z,101208.50
2022-11-02T02:43:40.774Z,101211.22
2022-11-02T02:46:45.449Z,101212.63
2022-11-02T02:49:53.614Z,101237.44
2022-11-02T02:52:50.649Z,101245.19
2022-11-02T02:55:48.285Z,101239.25
2022-11-02T02:58:51.733Z,101233.41
2022-11-02T03:01:49.110Z,101231.78
2022-11-02T03:04:47.239Z,101237.16
2022-11-02T03:07:44.725Z,101234.75
2022-11-02T03:10:49.090Z,101237.28
2022-11-02T03:13:49.751Z,101228.59
2022-11-02T03:17:19.693Z,101209.16
2022-11-02T03:20:39.251Z,101200.38
2022-11-02T03:23:44.321Z,101202.34
2022-11-02T03:27:03.407Z,101199.78
2022-11-02T03:30:14.789Z,101198.75
2022-11-02T03:33:18.505Z,101209.19
2022-11-02T03:36:31.477Z,101209.47
2022-11-02T03:39:37.096Z,101198.88
2022-11-02T03:42:34.949Z,101211.41
2022-11-02T03:45:38.684Z,101216.84
2022-11-02T03:48:38.648Z,101217.47
2022-11-02T03:51:38.079Z,101226.34
2022-11-02T03:54:41.862Z,101216.00
2022-11-02T03:57:46.858Z,101212.63
2022-11-02T04:00:51.176Z,101220.59
2022-11-02T04:03:47.891Z,101246.56
2022-11-02T04:06:45.127Z,101282.09
2022-11-02T04:09:42.701Z,101261.09
2022-11-02T04:12:58.013Z,101265.34
2022-11-02T04:15:54.760Z,101262.69
2022-11-02T04:19:11.144Z,101289.88
2022-11-02T04:22:27.060Z,101303.34
2022-11-02T04:25:31.918Z,101290.16
2022-11-02T04:28:45.035Z,101286.69
2022-11-02T04:31:42.839Z,101266.88
2022-11-02T04:34:39.751Z,101263.53
2022-11-02T04:38:02.003Z,101274.84
2022-11-02T04:41:22.109Z,101267.44
2022-11-02T04:44:24.905Z,101265.16
2022-11-02T04:47:34.829Z,101262.66
2022-11-02T04:50:31.729Z,101274.13
2022-11-02T04:53:29.929Z,101281.78
2022-11-02T04:56:27.337Z,101268.13
2022-11-02T04:59:25.831Z,101280.97
2022-11-02T05:02:23.835Z,101278.25
2022-11-02T05:05:22.050Z,101264.34
2022-11-02T05:08:22.146Z,101271.66
2022-11-02T05:11:20.085Z,101277.94
2022-11-02T05:14:20.058Z,101272.41
2022-11-02T05:17:17.978Z,101266.00
2022-11-02T05:20:14.904Z,101281.78
2022-11-02T05:23:12.925Z,101279.31
2022-11-02T05:26:11.781Z,101280.31
2022-11-02T05:29:11.842Z,101271.69
2022-11-02T05:32:09.748Z,101284.56
2022-11-02T05:35:08.699Z,101293.44
2022-11-02T05:38:06.167Z,101268.06
2022-11-02T05:41:02.874Z,101282.94
2022-11-02T05:44:04.948Z,101307.00
2022-11-02T05:47:02.208Z,101297.00
2022-11-02T05:49:58.836Z,101291.00
2022-11-02T05:52:55.995Z,101295.41
2022-11-02T05:55:53.482Z,101311.91
2022-11-02T06:01:49.152Z,101321.31
2022-11-02T06:04:46.032Z,101323.50
2022-11-02T06:07:42.978Z,101327.94
2022-11-02T06:10:42.922Z,101329.97
2022-11-02T06:13:40.953Z,101328.81
2022-11-02T06:16:37.900Z,101322.78
2022-11-02T06:19:34.696Z,101326.09
2022-11-02T06:22:38.184Z,101323.38
2022-11-02T06:25:35.113Z,101318.78
2022-11-02T06:28:32.355Z,101325.78
2022-11-02T06:31:29.695Z,101329.38
2022-11-02T06:34:27.024Z,101332.28
2022-11-02T06:37:23.955Z,101337.44
2022-11-02T06:40:22.738Z,101329.66
2022-11-02T06:43:23.401Z,101337.44
2022-11-02T06:46:21.479Z,101349.72
2022-11-02T06:49:18.949Z,101364.00
2022-11-02T06:52:15.919Z,101365.91
2022-11-02T06:55:12.882Z,101361.31
2022-11-02T06:58:10.096Z,101356.09
2022-11-02T07:01:07.677Z,101373.88
2022-11-02T07:04:05.149Z,101362.38
2022-11-02T07:07:01.814Z,101362.28
2022-11-02T07:09:58.961Z,101358.03
2022-11-02T07:12:56.680Z,101372.00
2022-11-02T07:15:54.727Z,101385.94
2022-11-02T07:18:52.254Z,101400.63
2022-11-02T07:21:49.152Z,101403.00
2022-11-02T07:24:46.290Z,101401.94
2022-11-02T07:27:43.083Z,101410.19
2022-11-02T07:30:39.908Z,101431.78
2022-11-02T07:33:36.930Z,101415.75
2022-11-02T07:36:33.885Z,101433.38
2022-11-02T07:39:30.899Z,101437.19
2022-11-02T07:42:28.151Z,101444.91
2022-11-02T07:45:29.321Z,101446.53
2022-11-02T07:48:25.824Z,101441.34
2022-11-02T07:51:22.961Z,101441.97
2022-11-02T07:54:20.142Z,101449.03
2022-11-02T07:57:17.038Z,101450.16
2022-11-02T08:00:14.195Z,101454.44
2022-11-02T08:03:11.724Z,101475.78
2022-11-02T08:06:08.927Z,101466.03
2022-11-02T08:09:05.977Z,101465.94
2022-11-02T08:12:02.951Z,101474.22
2022-11-02T08:15:04.750Z,101478.38
2022-11-02T08:18:05.452Z,101486.63
2022-11-02T08:21:04.350Z,101486.38
2022-11-02T08:24:01.323Z,101495.38
2022-11-02T08:26:58.170Z,101493.16
2022-11-02T08:29:54.945Z,101502.72
2022-11-02T08:32:56.514Z,101507.69
2022-11-02T08:35:54.179Z,101500.47
2022-11-02T08:38:51.068Z,101505.56
2022-11-02T08:41:47.842Z,101521.28
2022-11-02T08:44:45.395Z,101544.53
2022-11-02T08:47:42.259Z,101516.56
2022-11-02T08:50:39.113Z,101514.81
2022-11-02T08:53:36.098Z,101538.31
2022-11-02T08:56:33.081Z,101534.78
2022-11-02T08:59:29.880Z,101547.03
2022-11-02T09:02:27.547Z,101545.00
2022-11-02T09:05:25.332Z,101543.72
2022-11-02T09:08:21.981Z,101543.63
2022-11-02T09:11:19.277Z,101562.50
2022-11-02T09:14:16.565Z,101558.84
2022-11-02T09:17:14.346Z,101576.09
2022-11-02T09:20:11.540Z,101578.88
2022-11-02T09:23:08.876Z,101582.34
2022-11-02T09:26:06.510Z,101567.97
2022-11-02T09:29:03.918Z,101587.34
2022-11-02T09:32:01.169Z,101585.81
2022-11-02T09:34:58.355Z,101596.66
2022-11-02T09:37:55.697Z,101597.22
2022-11-02T09:40:59.032Z,101610.06
2022-11-02T09:44:06.470Z,101592.91
2022-11-02T09:47:55.784Z,101607.16
2022-11-02T09:50:24.106Z,101592.47
2022-11-02T09:53:27.911Z,101612.34
2022-11-02T09:56:25.036Z,101595.03
2022-11-02T09:59:25.876Z,101597.06
2022-11-02T10:02:26.015Z,101634.69
2022-11-02T10:05:34.000Z,101613.84
2022-11-02T10:08:37.871Z,101637.78
2022-11-02T10:11:40.791Z,101641.63
2022-11-02T10:14:39.459Z,101638.84
2022-11-02T10:17:37.358Z,101636.38
2022-11-02T10:20:54.678Z,101636.78
2022-11-02T10:23:53.334Z,101667.16
2022-11-02T10:26:50.236Z,101654.84
2022-11-02T10:29:52.820Z,101650.94
2022-11-02T10:32:53.246Z,101661.16
2022-11-02T10:39:31.349Z,101682.53
2022-11-02T10:42:39.578Z,101695.41
2022-11-02T10:45:55.049Z,101697.34
2022-11-02T10:49:05.891Z,101708.25
2022-11-02T10:52:03.985Z,101721.44
2022-11-02T10:55:01.137Z,101715.28
2022-11-02T10:57:59.086Z,101707.81
2022-11-02T11:01:10.274Z,101711.13
2022-11-02T11:04:20.117Z,101703.75
2022-11-02T11:07:25.114Z,101724.03
2022-11-02T11:10:23.686Z,101732.00
2022-11-02T11:16:42.007Z,101728.94
2022-11-02T11:19:40.721Z,101731.25
2022-11-02T11:22:39.285Z,101713.78
2022-11-02T11:25:36.269Z,101731.78
2022-11-02T11:28:33.879Z,101730.69
2022-11-02T11:31:31.237Z,101722.97
2022-11-02T11:34:32.654Z,101718.47
2022-11-02T11:37:30.325Z,101714.34
2022-11-02T11:40:27.824Z,101742.09
2022-11-02T11:43:27.001Z,101714.19
2022-11-02T11:46:24.642Z,101726.41
2022-11-02T11:49:35.997Z,101716.38
2022-11-02T11:52:39.363Z,101720.25
2022-11-02T11:55:36.609Z,101734.16
2022-11-02T11:58:34.669Z,101751.69
2022-11-02T12:01:39.529Z,101752.22
2022-11-02T12:04:37.255Z,101766.41
2022-11-02T12:08:11.905Z,101787.69
2022-11-02T12:11:16.372Z,101738.31
2022-11-02T12:14:24.796Z,101746.75
2022-11-02T12:17:25.307Z,101733.63
2022-11-02T12:20:59.431Z,101738.50
2022-11-02T12:24:00.421Z,101736.66
2022-11-02T12:27:04.779Z,101741.78
2022-11-02T12:30:11.601Z,101732.50
2022-11-02T12:33:22.913Z,101745.81
2022-11-02T12:36:49.664Z,101740.59
2022-11-02T12:40:14.610Z,101744.00
2022-11-02T12:43:15.702Z,101752.75
2022-11-02T12:46:39.018Z,101759.28
2022-11-02T12:50:16.815Z,101763.22
2022-11-02T12:53:32.781Z,101754.97
2022-11-02T12:56:39.616Z,101755.25
2022-11-02T12:59:36.409Z,101751.19
2022-11-02T13:02:36.712Z,101748.63
2022-11-02T13:05:42.768Z,101755.16
2022-11-02T13:08:52.145Z,101753.22
2022-11-02T13:11:53.355Z,101746.50
2022-11-02T13:14:51.616Z,101741.44
2022-11-02T13:17:53.909Z,101751.59
2022-11-02T13:20:53.221Z,101773.75
2022-11-02T13:23:51.882Z,101790.38
2022-11-02T13:26:57.117Z,101788.34
2022-11-02T13:30:01.856Z,101775.53
2022-11-02T13:33:26.873Z,101802.38
2022-11-02T13:36:24.450Z,101756.16
2022-11-02T13:39:26.698Z,101768.34
2022-11-02T13:42:27.114Z,101748.47
2022-11-02T13:45:47.280Z,101749.13
2022-11-02T13:48:50.524Z,101743.84
2022-11-02T13:51:49.989Z,101739.16
2022-11-02T13:54:51.135Z,101748.50
2022-11-02T13:57:50.221Z,101737.31
2022-11-02T14:00:47.233Z,101722.47
2022-11-02T14:03:47.205Z,101719.69
2022-11-02T14:07:03.830Z,101745.22
2022-11-02T14:10:09.942Z,101763.97
2022-11-02T14:13:17.653Z,101756.47
2022-11-02T14:16:48.479Z,101723.31
2022-11-02T14:19:47.617Z,101728.69
2022-11-02T14:23:11.468Z,101716.19
2022-11-02T14:26:31.642Z,101748.56
2022-11-02T14:29:55.173Z,101770.03
2022-11-02T14:33:15.926Z,101734.84
2022-11-02T14:36:15.980Z,101736.44
2022-11-02T14:39:47.676Z,101739.94
2022-11-02T14:43:09.382Z,101706.56
2022-11-02T14:46:37.428Z,101742.19
2022-11-02T14:49:39.477Z,101743.69
2022-11-02T14:52:36.634Z,101751.66
2022-11-02T14:55:34.728Z,101744.75
2022-11-02T14:58:37.951Z,101732.50
2022-11-02T15:01:35.291Z,101761.91
2022-11-02T15:04:33.204Z,101755.63
2022-11-02T15:07:30.338Z,101748.41
2022-11-02T15:10:30.209Z,101771.44
2022-11-02T15:13:30.154Z,101773.34
2022-11-02T15:16:38.732Z,101765.97
2022-11-02T15:19:51.928Z,101777.91
2022-11-02T15:22:54.821Z,101787.59
2022-11-02T15:25:53.087Z,101780.84
2022-11-02T15:28:50.315Z,101764.91
2022-11-02T15:31:52.671Z,101772.75
2022-11-02T15:34:50.983Z,101771.06
2022-11-02T15:38:11.346Z,101773.19
2022-11-02T15:41:23.305Z,101754.53
2022-11-02T15:44:32.260Z,101753.00
2022-11-02T15:47:50.705Z,101764.22
2022-11-02T15:51:20.753Z,101760.22
2022-11-02T15:54:45.723Z,101767.59
2022-11-02T15:57:52.766Z,101777.41
2022-11-02T16:01:23.107Z,101754.19
2022-11-02T16:04:20.530Z,101768.50
2022-11-02T16:07:17.723Z,101766.97
2022-11-02T16:10:20.787Z,101785.16
2022-11-02T16:13:22.113Z,101778.56
2022-11-02T16:16:19.800Z,101760.34
2022-11-02T16:19:20.831Z,101756.50
2022-11-02T16:22:24.962Z,101755.06
2022-11-02T16:25:39.958Z,101760.28
2022-11-02T16:28:37.559Z,101761.66
2022-11-02T16:31:34.634Z,101763.28
2022-11-02T16:34:31.687Z,101775.13
2022-11-02T16:37:28.396Z,101793.06
2022-11-02T16:40:25.153Z,101772.41
2022-11-02T16:43:22.600Z,101760.63
2022-11-02T16:46:19.609Z,101759.47
2022-11-02T16:49:19.880Z,101764.53
2022-11-02T16:52:34.080Z,101780.25
2022-11-02T16:55:37.442Z,101778.38
2022-11-02T16:58:34.729Z,101770.75
2022-11-02T17:01:38.869Z,101768.84
2022-11-02T17:04:37.117Z,101770.19
2022-11-02T17:07:41.964Z,101771.31
2022-11-02T17:10:39.398Z,101778.75
2022-11-02T17:13:37.500Z,101779.66
2022-11-02T17:16:34.516Z,101790.78
2022-11-02T17:20:09.736Z,101793.50
2022-11-02T17:23:08.760Z,101787.19
2022-11-02T17:26:22.153Z,101788.44
2022-11-02T17:29:19.340Z,101797.22
2022-11-02T17:32:16.317Z,101784.84
2022-11-02T17:35:13.748Z,101787.75
2022-11-02T17:38:10.422Z,101777.41
2022-11-02T17:41:30.198Z,101779.19
2022-11-02T17:44:27.186Z,101766.19
2022-11-02T17:47:24.401Z,101767.81
2022-11-02T17:50:21.380Z,101772.09
2022-11-02T17:53:18.063Z,101767.28
2022-11-02T17:56:15.751Z,101759.53
2022-11-02T17:59:12.313Z,101756.81
2022-11-02T18:02:13.350Z,101749.88
2022-11-02T18:05:21.083Z,101762.69
2022-11-02T18:08:18.803Z,101762.00
2022-11-02T18:11:15.628Z,101766.16
2022-11-02T18:14:14.409Z,101754.47
2022-11-02T18:17:11.582Z,101753.66
2022-11-02T18:20:09.669Z,101753.56
2022-11-02T18:23:07.438Z,101752.84
2022-11-02T18:26:04.523Z,101743.25
2022-11-02T18:29:04.009Z,101737.78
2022-11-02T18:32:01.544Z,101739.28
2022-11-02T18:34:58.662Z,101736.44
2022-11-02T18:37:55.618Z,101738.78
2022-11-02T18:40:52.454Z,101747.75
2022-11-02T18:43:49.391Z,101736.63
2022-11-02T18:46:46.631Z,101727.97
2022-11-02T18:49:43.576Z,101724.31
2022-11-02T18:52:42.016Z,101717.19
2022-11-02T18:55:40.272Z,101728.13
2022-11-02T18:58:37.463Z,101735.69
2022-11-02T19:01:34.720Z,101737.47
2022-11-02T19:04:32.408Z,101745.22
2022-11-02T19:07:48.027Z,101741.84
2022-11-02T19:10:49.045Z,101731.56
2022-11-02T19:13:46.585Z,101722.50
2022-11-02T19:16:43.755Z,101711.06
2022-11-02T19:19:45.432Z,101699.47
2022-11-02T19:22:42.812Z,101696.19
2022-11-02T19:25:39.504Z,101687.56
2022-11-02T19:28:36.615Z,101685.44
2022-11-02T19:31:34.439Z,101690.44
2022-11-02T19:34:31.696Z,101683.66
2022-11-02T19:37:34.222Z,101675.22
2022-11-02T19:40:31.614Z,101685.28
2022-11-02T19:43:28.537Z,101687.94
2022-11-02T19:46:25.993Z,101682.63
2022-11-02T19:49:23.484Z,101679.50
2022-11-02T19:52:20.616Z,101671.91
2022-11-02T19:55:17.788Z,101672.38
2022-11-02T19:58:14.898Z,101678.03
2022-11-02T20:01:13.255Z,101679.00
2022-11-02T20:04:10.507Z,101655.81
2022-11-02T20:07:07.449Z,101665.94
2022-11-02T20:10:05.253Z,101665.09
2022-11-02T20:13:02.539Z,101669.75
2022-11-02T20:15:59.449Z,101662.91
2022-11-02T20:18:56.970Z,101659.53
2022-11-02T20:21:54.727Z,101657.41
2022-11-02T20:24:51.410Z,101657.72
2022-11-02T20:27:48.409Z,101648.94
2022-11-02T20:30:45.895Z,101648.44
2022-11-02T20:33:42.863Z,101650.41
2022-11-02T20:36:39.862Z,101650.56
2022-11-02T20:39:36.727Z,101647.25
2022-11-02T20:42:37.836Z,101645.63
2022-11-02T20:45:35.821Z,101638.00
2022-11-02T20:48:32.875Z,101648.09
2022-11-02T20:51:29.685Z,101645.25
2022-11-02T20:54:29.572Z,101647.91
2022-11-02T20:57:28.379Z,101645.22
2022-11-02T21:00:25.626Z,101651.72
2022-11-02T21:03:22.636Z,101647.41
2022-11-02T21:06:19.778Z,101643.63
2022-11-02T21:09:17.566Z,101649.47
2022-11-02T21:12:33.325Z,101638.19
2022-11-02T21:15:30.443Z,101633.16
2022-11-02T21:18:27.746Z,101634.63
2022-11-02T21:21:24.537Z,101618.38
2022-11-02T21:24:21.471Z,101623.84
2022-11-02T21:27:21.537Z,101622.16
2022-11-02T21:30:19.112Z,101615.19
2022-11-02T21:33:16.764Z,101618.00
2022-11-02T21:36:13.970Z,101616.50
2022-11-02T21:39:10.483Z,101612.19
2022-11-02T21:42:07.626Z,101618.84
2022-11-02T21:45:05.171Z,101607.00
2022-11-02T21:48:02.930Z,101600.78
2022-11-02T21:51:03.811Z,101597.66
2022-11-02T21:54:00.790Z,101593.41
2022-11-02T21:56:58.740Z,101590.88
2022-11-02T21:59:56.064Z,101585.88
2022-11-02T22:02:52.718Z,101588.84
2022-11-02T22:05:55.496Z,101586.59
2022-11-02T22:08:52.739Z,101586.06
2022-11-02T22:12:09.613Z,101596.53
2022-11-02T22:15:07.492Z,101584.25
2022-11-02T22:18:04.688Z,101589.22
2022-11-02T22:21:01.790Z,101574.31
2022-11-02T22:23:59.115Z,101585.22
2022-11-02T22:26:56.854Z,101574.69
2022-11-02T22:29:53.851Z,101560.66
2022-11-02T22:32:50.737Z,101566.81
2022-11-02T22:35:47.717Z,101557.50
2022-11-02T22:38:53.921Z,101549.91
2022-11-02T22:41:51.657Z,101552.66
2022-11-02T22:44:48.546Z,101547.78
2022-11-02T22:47:45.375Z,101537.69
2022-11-02T22:50:44.078Z,101526.66
2022-11-02T22:53:41.859Z,101519.00
2022-11-02T22:56:38.655Z,101507.75
2022-11-02T22:59:35.823Z,101508.06
2022-11-02T23:02:32.609Z,101515.28
2022-11-02T23:05:30.675Z,101497.69
2022-11-02T23:08:28.251Z,101498.25
2022-11-02T23:11:31.056Z,101500.81
2022-11-02T23:14:27.727Z,101509.34
2022-11-02T23:17:25.140Z,101490.88
2022-11-02T23:20:22.901Z,101498.59
2022-11-02T23:23:38.218Z,101498.69
2022-11-02T23:26:35.793Z,101497.25
2022-11-02T23:29:51.088Z,101490.47
2022-11-02T23:32:47.907Z,101470.88
2022-11-02T23:36:03.062Z,101474.41
2022-11-02T23:39:18.560Z,101473.72
2022-11-02T23:42:15.673Z,101462.91
2022-11-02T23:45:13.048Z,101472.59
2022-11-02T23:48:10.510Z,101466.34
2022-11-02T23:51:27.189Z,101454.97
2022-11-02T23:54:43.346Z,101456.88
2022-11-02T23:57:41.006Z,101452.66
